sensor_id;sensor_type;location;lat;lon;timestamp;P1;durP1;ratioP1;P2;durP2;ratioP2
11269;SDS011;5692;48.956;9.200;2023-06-10T00:02:16;208.33;;;198.37;;
11269;SDS011;5692;48.956;9.200;2023-06-10T00:04:42;202.90;;;193.20;;
11269;SDS011;5692;48.956;9.200;2023-06-10T00:07:08;202.95;;;193.23;;
11269;SDS011;5692;48.956;9.200;2023-06-10T00:09:37;207.13;;;197.23;;
11269;SDS011;5692;48.956;9.200;2023-06-10T00:12:04;218.27;;;207.85;;
11269;SDS011;5692;48.956;9.200;2023-06-10T00:14:31;220.65;;;210.10;;
11269;SDS011;5692;48.956;9.200;2023-06-10T00:16:57;208.05;;;198.10;;
11269;SDS011;5692;48.956;9.200;2023-06-10T00:19:24;221.68;;;211.07;;
11269;SDS011;5692;48.956;9.200;2023-06-10T00:21:55;214.80;;;204.50;;
11269;SDS011;5692;48.956;9.200;2023-06-10T00:24:21;213.55;;;203.35;;
11269;SDS011;5692;48.956;9.200;2023-06-10T00:26:47;222.45;;;211.80;;
11269;SDS011;5692;48.956;9.200;2023-06-10T00:29:13;222.80;;;212.13;;
11269;SDS011;5692;48.956;9.200;2023-06-10T00:31:40;217.43;;;207.02;;
11269;SDS011;5692;48.956;9.200;2023-06-10T00:34:06;228.05;;;217.15;;
11269;SDS011;5692;48.956;9.200;2023-06-10T00:36:32;238.15;;;226.77;;
11269;SDS011;5692;48.956;9.200;2023-06-10T00:38:59;220.65;;;210.10;;
11269;SDS011;5692;48.956;9.200;2023-06-10T00:41:25;215.88;;;205.55;;
11269;SDS011;5692;48.956;9.200;2023-06-10T00:43:51;216.13;;;205.77;;
11269;SDS011;5692;48.956;9.200;2023-06-10T00:46:17;214.07;;;203.85;;
11269;SDS011;5692;48.956;9.200;2023-06-10T00:48:43;210.57;;;200.48;;
11269;SDS011;5692;48.956;9.200;2023-06-10T00:51:10;201.10;;;191.50;;
11269;SDS011;5692;48.956;9.200;2023-06-10T00:53:37;222.73;;;212.05;;
11269;SDS011;5692;48.956;9.200;2023-06-10T00:56:04;208.98;;;198.98;;
11269;SDS011;5692;48.956;9.200;2023-06-10T00:58:30;206.30;;;196.40;;
11269;SDS011;5692;48.956;9.200;2023-06-10T01:00:57;222.07;;;211.45;;
11269;SDS011;5692;48.956;9.200;2023-06-10T01:03:23;221.43;;;210.82;;
11269;SDS011;5692;48.956;9.200;2023-06-10T01:05:51;226.45;;;215.60;;
11269;SDS011;5692;48.956;9.200;2023-06-10T01:08:33;223.40;;;212.70;;
11269;SDS011;5692;48.956;9.200;2023-06-10T01:11:03;216.88;;;206.48;;
11269;SDS011;5692;48.956;9.200;2023-06-10T01:13:30;228.50;;;217.57;;
11269;SDS011;5692;48.956;9.200;2023-06-10T01:15:57;216.50;;;206.10;;
11269;SDS011;5692;48.956;9.200;2023-06-10T01:18:29;216.85;;;206.45;;
11269;SDS011;5692;48.956;9.200;2023-06-10T01:20:55;201.13;;;191.50;;
11269;SDS011;5692;48.956;9.200;2023-06-10T01:23:22;202.48;;;192.77;;
11269;SDS011;5692;48.956;9.200;2023-06-10T01:25:53;211.73;;;201.60;;
11269;SDS011;5692;48.956;9.200;2023-06-10T01:33:42;216.30;;;205.95;;
11269;SDS011;5692;48.956;9.200;2023-06-10T01:36:08;205.43;;;195.63;;
11269;SDS011;5692;48.956;9.200;2023-06-10T01:38:45;216.32;;;205.98;;
11269;SDS011;5692;48.956;9.200;2023-06-10T01:41:12;229.35;;;218.38;;
11269;SDS011;5692;48.956;9.200;2023-06-10T01:43:39;222.93;;;212.23;;
11269;SDS011;5692;48.956;9.200;2023-06-10T01:46:05;215.70;;;205.38;;
11269;SDS011;5692;48.956;9.200;2023-06-10T01:48:32;215.20;;;204.90;;
11269;SDS011;5692;48.956;9.200;2023-06-10T01:51:00;223.88;;;213.18;;
11269;SDS011;5692;48.956;9.200;2023-06-10T01:53:26;230.07;;;219.07;;
11269;SDS011;5692;48.956;9.200;2023-06-10T01:55:52;231.90;;;220.80;;
11269;SDS011;5692;48.956;9.200;2023-06-10T01:58:18;227.70;;;216.83;;
11269;SDS011;5692;48.956;9.200;2023-06-10T02:00:44;217.00;;;206.60;;
11269;SDS011;5692;48.956;9.200;2023-06-10T02:03:10;221.73;;;211.13;;
11269;SDS011;5692;48.956;9.200;2023-06-10T02:05:36;217.13;;;206.73;;
11269;SDS011;5692;48.956;9.200;2023-06-10T02:08:02;225.57;;;214.77;;
11269;SDS011;5692;48.956;9.200;2023-06-10T02:10:28;239.43;;;227.98;;
11269;SDS011;5692;48.956;9.200;2023-06-10T02:12:54;229.77;;;218.77;;
11269;SDS011;5692;48.956;9.200;2023-06-10T02:15:20;235.88;;;224.57;;
11269;SDS011;5692;48.956;9.200;2023-06-10T02:17:46;226.07;;;215.25;;
11269;SDS011;5692;48.956;9.200;2023-06-10T02:20:14;229.05;;;218.05;;
11269;SDS011;5692;48.956;9.200;2023-06-10T02:22:40;222.10;;;211.48;;
11269;SDS011;5692;48.956;9.200;2023-06-10T02:25:06;232.35;;;221.25;;
11269;SDS011;5692;48.956;9.200;2023-06-10T02:27:32;225.85;;;215.05;;
11269;SDS011;5692;48.956;9.200;2023-06-10T02:29:58;233.70;;;222.52;;
11269;SDS011;5692;48.956;9.200;2023-06-10T02:32:24;233.15;;;222.00;;
11269;SDS011;5692;48.956;9.200;2023-06-10T02:34:50;225.35;;;214.55;;
11269;SDS011;5692;48.956;9.200;2023-06-10T02:37:17;224.32;;;213.63;;
11269;SDS011;5692;48.956;9.200;2023-06-10T02:39:43;227.10;;;216.23;;
11269;SDS011;5692;48.956;9.200;2023-06-10T02:42:09;222.80;;;212.13;;
11269;SDS011;5692;48.956;9.200;2023-06-10T02:44:35;217.20;;;206.80;;
11269;SDS011;5692;48.956;9.200;2023-06-10T02:47:01;204.90;;;195.07;;
11269;SDS011;5692;48.956;9.200;2023-06-10T02:49:27;213.43;;;203.23;;
11269;SDS011;5692;48.956;9.200;2023-06-10T02:51:53;215.07;;;204.77;;
11269;SDS011;5692;48.956;9.200;2023-06-10T02:54:21;211.10;;;201.00;;
11269;SDS011;5692;48.956;9.200;2023-06-10T02:56:47;228.82;;;217.88;;
11269;SDS011;5692;48.956;9.200;2023-06-10T02:59:14;227.15;;;216.30;;
11269;SDS011;5692;48.956;9.200;2023-06-10T03:01:40;211.35;;;201.25;;
11269;SDS011;5692;48.956;9.200;2023-06-10T03:04:06;234.85;;;223.65;;
11269;SDS011;5692;48.956;9.200;2023-06-10T03:06:33;237.60;;;226.23;;
11269;SDS011;5692;48.956;9.200;2023-06-10T03:09:00;218.00;;;207.60;;
11269;SDS011;5692;48.956;9.200;2023-06-10T03:11:26;224.63;;;213.88;;
11269;SDS011;5692;48.956;9.200;2023-06-10T03:13:52;224.10;;;213.40;;
11269;SDS011;5692;48.956;9.200;2023-06-10T03:16:19;206.48;;;196.60;;
11269;SDS011;5692;48.956;9.200;2023-06-10T03:18:45;220.13;;;209.63;;
11269;SDS011;5692;48.956;9.200;2023-06-10T03:21:11;221.27;;;210.70;;
11269;SDS011;5692;48.956;9.200;2023-06-10T03:23:37;228.02;;;217.13;;
11269;SDS011;5692;48.956;9.200;2023-06-10T03:26:03;220.05;;;209.55;;
11269;SDS011;5692;48.956;9.200;2023-06-10T03:28:30;222.23;;;211.63;;
11269;SDS011;5692;48.956;9.200;2023-06-10T03:30:56;207.13;;;197.23;;
11269;SDS011;5692;48.956;9.200;2023-06-10T03:33:22;213.18;;;202.98;;
11269;SDS011;5692;48.956;9.200;2023-06-10T03:35:48;190.52;;;181.40;;
11269;SDS011;5692;48.956;9.200;2023-06-10T03:38:14;201.57;;;191.93;;
11269;SDS011;5692;48.956;9.200;2023-06-10T03:40:41;201.77;;;192.10;;
11269;SDS011;5692;48.956;9.200;2023-06-10T03:43:07;204.05;;;194.27;;
11269;SDS011;5692;48.956;9.200;2023-06-10T03:45:33;209.55;;;199.52;;
11269;SDS011;5692;48.956;9.200;2023-06-10T03:48:00;208.35;;;198.38;;
11269;SDS011;5692;48.956;9.200;2023-06-10T03:50:28;211.07;;;200.98;;
11269;SDS011;5692;48.956;9.200;2023-06-10T03:52:54;220.75;;;210.15;;
11269;SDS011;5692;48.956;9.200;2023-06-10T03:55:20;205.20;;;195.38;;
11269;SDS011;5692;48.956;9.200;2023-06-10T03:57:48;214.55;;;204.27;;
11269;SDS011;5692;48.956;9.200;2023-06-10T04:00:14;208.18;;;198.20;;
11269;SDS011;5692;48.956;9.200;2023-06-10T04:02:41;202.35;;;192.65;;
11269;SDS011;5692;48.956;9.200;2023-06-10T04:05:18;212.82;;;202.65;;
11269;SDS011;5692;48.956;9.200;2023-06-10T04:07:47;207.43;;;197.52;;
11269;SDS011;5692;48.956;9.200;2023-06-10T04:10:13;203.48;;;193.73;;
11269;SDS011;5692;48.956;9.200;2023-06-10T04:12:39;201.65;;;192.00;;
11269;SDS011;5692;48.956;9.200;2023-06-10T04:15:06;205.60;;;195.77;;
11269;SDS011;5692;48.956;9.200;2023-06-10T04:17:32;199.73;;;190.18;;
11269;SDS011;5692;48.956;9.200;2023-06-10T04:19:58;210.98;;;200.88;;
11269;SDS011;5692;48.956;9.200;2023-06-10T04:22:25;191.77;;;182.60;;
11269;SDS011;5692;48.956;9.200;2023-06-10T04:24:51;195.30;;;185.95;;
11269;SDS011;5692;48.956;9.200;2023-06-10T04:27:17;195.05;;;185.70;;
11269;SDS011;5692;48.956;9.200;2023-06-10T04:29:43;181.23;;;172.55;;
11269;SDS011;5692;48.956;9.200;2023-06-10T04:32:09;185.25;;;176.35;;
11269;SDS011;5692;48.956;9.200;2023-06-10T04:34:36;181.68;;;172.98;;
11269;SDS011;5692;48.956;9.200;2023-06-10T04:37:05;198.65;;;189.13;;
11269;SDS011;5692;48.956;9.200;2023-06-10T04:39:31;183.15;;;174.35;;
11269;SDS011;5692;48.956;9.200;2023-06-10T04:41:57;189.47;;;180.40;;
11269;SDS011;5692;48.956;9.200;2023-06-10T04:44:23;190.82;;;181.73;;
11269;SDS011;5692;48.956;9.200;2023-06-10T04:46:51;185.88;;;176.98;;
11269;SDS011;5692;48.956;9.200;2023-06-10T04:49:17;181.60;;;172.90;;
11269;SDS011;5692;48.956;9.200;2023-06-10T04:51:43;195.00;;;185.70;;
11269;SDS011;5692;48.956;9.200;2023-06-10T04:54:09;199.40;;;189.87;;
11269;SDS011;5692;48.956;9.200;2023-06-10T04:56:35;191.52;;;182.32;;
11269;SDS011;5692;48.956;9.200;2023-06-10T04:59:01;209.77;;;199.75;;
11269;SDS011;5692;48.956;9.200;2023-06-10T05:01:27;209.10;;;199.07;;
11269;SDS011;5692;48.956;9.200;2023-06-10T05:03:53;205.55;;;195.75;;
11269;SDS011;5692;48.956;9.200;2023-06-10T05:06:20;205.02;;;195.23;;
11269;SDS011;5692;48.956;9.200;2023-06-10T05:08:46;223.10;;;212.43;;
11269;SDS011;5692;48.956;9.200;2023-06-10T05:11:12;196.02;;;186.63;;
11269;SDS011;5692;48.956;9.200;2023-06-10T05:13:38;204.40;;;194.63;;
11269;SDS011;5692;48.956;9.200;2023-06-10T05:16:05;204.35;;;194.55;;
11269;SDS011;5692;48.956;9.200;2023-06-10T05:18:32;213.02;;;202.82;;
11269;SDS011;5692;48.956;9.200;2023-06-10T05:20:58;215.07;;;204.77;;
11269;SDS011;5692;48.956;9.200;2023-06-10T05:23:24;220.57;;;210.02;;
11269;SDS011;5692;48.956;9.200;2023-06-10T05:25:50;212.77;;;202.60;;
11269;SDS011;5692;48.956;9.200;2023-06-10T05:28:16;210.05;;;200.00;;
11269;SDS011;5692;48.956;9.200;2023-06-10T05:30:43;226.73;;;215.88;;
11269;SDS011;5692;48.956;9.200;2023-06-10T05:33:09;227.77;;;216.88;;
11269;SDS011;5692;48.956;9.200;2023-06-10T05:35:35;224.75;;;214.00;;
11269;SDS011;5692;48.956;9.200;2023-06-10T05:38:02;223.63;;;212.93;;
11269;SDS011;5692;48.956;9.200;2023-06-10T05:40:28;221.23;;;210.63;;
11269;SDS011;5692;48.956;9.200;2023-06-10T05:42:54;233.00;;;221.87;;
11269;SDS011;5692;48.956;9.200;2023-06-10T05:45:19;229.83;;;218.83;;
11269;SDS011;5692;48.956;9.200;2023-06-10T05:47:45;217.87;;;207.47;;
11269;SDS011;5692;48.956;9.200;2023-06-10T05:50:11;207.30;;;197.40;;
11269;SDS011;5692;48.956;9.200;2023-06-10T05:52:37;221.02;;;210.43;;
11269;SDS011;5692;48.956;9.200;2023-06-10T05:55:06;207.18;;;197.25;;
11269;SDS011;5692;48.956;9.200;2023-06-10T05:57:33;234.05;;;222.85;;
11269;SDS011;5692;48.956;9.200;2023-06-10T05:59:59;217.38;;;206.98;;
11269;SDS011;5692;48.956;9.200;2023-06-10T06:02:28;221.75;;;211.15;;
11269;SDS011;5692;48.956;9.200;2023-06-10T06:04:54;231.80;;;220.70;;
11269;SDS011;5692;48.956;9.200;2023-06-10T06:07:19;208.00;;;198.03;;
11269;SDS011;5692;48.956;9.200;2023-06-10T06:09:46;218.05;;;207.65;;
11269;SDS011;5692;48.956;9.200;2023-06-10T06:12:12;238.15;;;226.75;;
11269;SDS011;5692;48.956;9.200;2023-06-10T06:14:39;228.20;;;217.30;;
11269;SDS011;5692;48.956;9.200;2023-06-10T06:17:05;236.73;;;225.40;;
11269;SDS011;5692;48.956;9.200;2023-06-10T06:19:31;229.93;;;218.93;;
11269;SDS011;5692;48.956;9.200;2023-06-10T06:21:57;218.38;;;207.93;;
11269;SDS011;5692;48.956;9.200;2023-06-10T06:24:23;221.73;;;211.13;;
11269;SDS011;5692;48.956;9.200;2023-06-10T06:26:49;221.95;;;211.32;;
11269;SDS011;5692;48.956;9.200;2023-06-10T06:29:15;217.45;;;207.05;;
11269;SDS011;5692;48.956;9.200;2023-06-10T06:31:41;245.90;;;234.15;;
11269;SDS011;5692;48.956;9.200;2023-06-10T06:34:07;226.02;;;215.23;;
11269;SDS011;5692;48.956;9.200;2023-06-10T06:36:33;233.30;;;222.13;;
11269;SDS011;5692;48.956;9.200;2023-06-10T06:38:59;222.17;;;211.57;;
11269;SDS011;5692;48.956;9.200;2023-06-10T06:41:28;224.73;;;213.98;;
11269;SDS011;5692;48.956;9.200;2023-06-10T06:43:54;221.48;;;210.88;;
11269;SDS011;5692;48.956;9.200;2023-06-10T06:46:20;226.20;;;215.40;;
11269;SDS011;5692;48.956;9.200;2023-06-10T06:48:47;225.50;;;214.70;;
11269;SDS011;5692;48.956;9.200;2023-06-10T06:51:13;231.40;;;220.32;;
11269;SDS011;5692;48.956;9.200;2023-06-10T06:53:39;223.48;;;212.77;;
11269;SDS011;5692;48.956;9.200;2023-06-10T06:56:12;219.35;;;208.85;;
11269;SDS011;5692;48.956;9.200;2023-06-10T06:58:38;213.70;;;203.50;;
11269;SDS011;5692;48.956;9.200;2023-06-10T07:01:05;219.65;;;209.13;;
11269;SDS011;5692;48.956;9.200;2023-06-10T07:03:31;223.65;;;212.95;;
11269;SDS011;5692;48.956;9.200;2023-06-10T07:05:57;217.18;;;206.77;;
11269;SDS011;5692;48.956;9.200;2023-06-10T07:08:25;219.65;;;209.15;;
11269;SDS011;5692;48.956;9.200;2023-06-10T07:10:51;223.85;;;213.15;;
11269;SDS011;5692;48.956;9.200;2023-06-10T07:13:18;216.07;;;205.73;;
11269;SDS011;5692;48.956;9.200;2023-06-10T07:15:44;224.82;;;214.05;;
11269;SDS011;5692;48.956;9.200;2023-06-10T07:18:10;233.48;;;222.30;;
11269;SDS011;5692;48.956;9.200;2023-06-10T07:20:36;230.10;;;219.10;;
11269;SDS011;5692;48.956;9.200;2023-06-10T07:23:02;211.23;;;201.13;;
11269;SDS011;5692;48.956;9.200;2023-06-10T07:25:28;218.70;;;208.25;;
11269;SDS011;5692;48.956;9.200;2023-06-10T07:27:54;219.97;;;209.47;;
11269;SDS011;5692;48.956;9.200;2023-06-10T07:30:20;209.23;;;199.23;;
11269;SDS011;5692;48.956;9.200;2023-06-10T07:32:47;215.35;;;205.05;;
11269;SDS011;5692;48.956;9.200;2023-06-10T07:35:13;220.13;;;209.60;;
11269;SDS011;5692;48.956;9.200;2023-06-10T07:37:39;222.48;;;211.82;;
11269;SDS011;5692;48.956;9.200;2023-06-10T07:40:05;221.53;;;210.93;;
11269;SDS011;5692;48.956;9.200;2023-06-10T07:42:34;220.77;;;210.23;;
11269;SDS011;5692;48.956;9.200;2023-06-10T07:45:01;222.93;;;212.25;;
11269;SDS011;5692;48.956;9.200;2023-06-10T07:47:27;215.15;;;204.85;;
11269;SDS011;5692;48.956;9.200;2023-06-10T07:49:53;225.60;;;214.80;;
11269;SDS011;5692;48.956;9.200;2023-06-10T07:52:19;224.40;;;213.70;;
11269;SDS011;5692;48.956;9.200;2023-06-10T07:54:45;227.80;;;216.90;;
11269;SDS011;5692;48.956;9.200;2023-06-10T07:57:11;218.77;;;208.30;;
11269;SDS011;5692;48.956;9.200;2023-06-10T07:59:37;211.30;;;201.20;;
11269;SDS011;5692;48.956;9.200;2023-06-10T08:02:03;234.27;;;223.07;;
11269;SDS011;5692;48.956;9.200;2023-06-10T08:04:30;227.03;;;216.17;;
11269;SDS011;5692;48.956;9.200;2023-06-10T08:06:56;215.33;;;205.03;;
11269;SDS011;5692;48.956;9.200;2023-06-10T08:09:22;227.17;;;216.27;;
11269;SDS011;5692;48.956;9.200;2023-06-10T08:11:48;227.90;;;217.00;;
11269;SDS011;5692;48.956;9.200;2023-06-10T08:14:15;215.40;;;205.10;;
11269;SDS011;5692;48.956;9.200;2023-06-10T08:16:42;224.07;;;213.33;;
11269;SDS011;5692;48.956;9.200;2023-06-10T08:19:08;231.07;;;220.00;;
11269;SDS011;5692;48.956;9.200;2023-06-10T08:21:35;226.63;;;215.80;;
11269;SDS011;5692;48.956;9.200;2023-06-10T08:24:05;238.80;;;227.40;;
11269;SDS011;5692;48.956;9.200;2023-06-10T08:26:31;228.13;;;217.23;;
11269;SDS011;5692;48.956;9.200;2023-06-10T08:28:57;243.63;;;231.97;;
11269;SDS011;5692;48.956;9.200;2023-06-10T08:31:23;240.40;;;228.90;;
11269;SDS011;5692;48.956;9.200;2023-06-10T08:33:49;240.80;;;229.30;;
11269;SDS011;5692;48.956;9.200;2023-06-10T08:36:15;249.87;;;237.93;;
11269;SDS011;5692;48.956;9.200;2023-06-10T08:38:41;250.10;;;238.13;;
11269;SDS011;5692;48.956;9.200;2023-06-10T08:41:07;237.70;;;226.30;;
11269;SDS011;5692;48.956;9.200;2023-06-10T08:44:20;241.67;;;230.10;;
11269;SDS011;5692;48.956;9.200;2023-06-10T08:46:24;241.93;;;230.37;;
11269;SDS011;5692;48.956;9.200;2023-06-10T08:48:52;235.37;;;224.10;;
11269;SDS011;5692;48.956;9.200;2023-06-10T08:51:19;249.87;;;237.93;;
11269;SDS011;5692;48.956;9.200;2023-06-10T08:53:54;246.93;;;235.13;;
11269;SDS011;5692;48.956;9.200;2023-06-10T08:56:22;265.37;;;252.67;;
11269;SDS011;5692;48.956;9.200;2023-06-10T08:58:50;243.67;;;232.03;;
11269;SDS011;5692;48.956;9.200;2023-06-10T09:01:20;240.80;;;229.30;;
11269;SDS011;5692;48.956;9.200;2023-06-10T09:03:46;270.93;;;257.97;;
11269;SDS011;5692;48.956;9.200;2023-06-10T09:06:12;280.53;;;267.13;;
11269;SDS011;5692;48.956;9.200;2023-06-10T09:08:38;269.33;;;256.43;;
11269;SDS011;5692;48.956;9.200;2023-06-10T09:11:05;292.97;;;278.97;;
11269;SDS011;5692;48.956;9.200;2023-06-10T09:13:31;270.37;;;257.47;;
11269;SDS011;5692;48.956;9.200;2023-06-10T09:15:58;267.10;;;254.33;;
11269;SDS011;5692;48.956;9.200;2023-06-10T09:18:26;276.30;;;263.10;;
11269;SDS011;5692;48.956;9.200;2023-06-10T09:20:52;272.33;;;259.33;;
11269;SDS011;5692;48.956;9.200;2023-06-10T09:23:18;257.40;;;245.10;;
11269;SDS011;5692;48.956;9.200;2023-06-10T09:25:53;245.30;;;233.60;;
11269;SDS011;5692;48.956;9.200;2023-06-10T09:28:21;227.30;;;216.43;;
11269;SDS011;5692;48.956;9.200;2023-06-10T09:30:47;239.20;;;227.77;;
11269;SDS011;5692;48.956;9.200;2023-06-10T09:33:14;240.27;;;228.77;;
11269;SDS011;5692;48.956;9.200;2023-06-10T09:35:47;215.17;;;204.87;;
11269;SDS011;5692;48.956;9.200;2023-06-10T09:38:14;225.73;;;214.93;;
11269;SDS011;5692;48.956;9.200;2023-06-10T09:40:50;256.33;;;244.07;;
11269;SDS011;5692;48.956;9.200;2023-06-10T09:43:16;249.63;;;237.70;;
11269;SDS011;5692;48.956;9.200;2023-06-10T09:45:42;282.03;;;268.57;;
11269;SDS011;5692;48.956;9.200;2023-06-10T09:48:09;284.40;;;270.80;;
11269;SDS011;5692;48.956;9.200;2023-06-10T09:50:41;248.00;;;236.13;;
11269;SDS011;5692;48.956;9.200;2023-06-10T09:53:07;262.47;;;249.93;;
11269;SDS011;5692;48.956;9.200;2023-06-10T09:55:34;255.67;;;243.47;;
11269;SDS011;5692;48.956;9.200;2023-06-10T09:58:00;239.47;;;228.00;;
11269;SDS011;5692;48.956;9.200;2023-06-10T10:00:26;261.10;;;248.63;;
11269;SDS011;5692;48.956;9.200;2023-06-10T10:02:52;279.13;;;265.80;;
11269;SDS011;5692;48.956;9.200;2023-06-10T10:05:20;244.47;;;232.77;;
11269;SDS011;5692;48.956;9.200;2023-06-10T10:07:46;234.77;;;223.57;;
11269;SDS011;5692;48.956;9.200;2023-06-10T10:10:13;239.13;;;227.70;;
11269;SDS011;5692;48.956;9.200;2023-06-10T10:12:40;236.40;;;225.07;;
11269;SDS011;5692;48.956;9.200;2023-06-10T10:15:10;274.60;;;261.47;;
11269;SDS011;5692;48.956;9.200;2023-06-10T10:20:22;234.63;;;223.43;;
11269;SDS011;5692;48.956;9.200;2023-06-10T10:22:50;240.17;;;228.67;;
11269;SDS011;5692;48.956;9.200;2023-06-10T10:25:23;239.50;;;228.03;;
11269;SDS011;5692;48.956;9.200;2023-06-10T10:28:02;227.10;;;216.23;;
11269;SDS011;5692;48.956;9.200;2023-06-10T10:30:30;225.67;;;214.87;;
11269;SDS011;5692;48.956;9.200;2023-06-10T10:33:06;223.87;;;213.17;;
11269;SDS011;5692;48.956;9.200;2023-06-10T10:35:35;244.07;;;232.40;;
11269;SDS011;5692;48.956;9.200;2023-06-10T10:38:01;240.67;;;229.17;;
11269;SDS011;5692;48.956;9.200;2023-06-10T10:40:28;15.10;;;8.00;;
11269;SDS011;5692;48.956;9.200;2023-06-10T10:42:55;100.53;;;95.73;;
11269;SDS011;5692;48.956;9.200;2023-06-10T10:45:22;209.03;;;199.03;;
11269;SDS011;5692;48.956;9.200;2023-06-10T10:47:51;9.33;;;7.27;;
11269;SDS011;5692;48.956;9.200;2023-06-10T10:50:18;8.87;;;6.50;;
11269;SDS011;5692;48.956;9.200;2023-06-10T10:52:54;232.60;;;221.47;;
11269;SDS011;5692;48.956;9.200;2023-06-10T10:55:21;234.23;;;223.03;;
11269;SDS011;5692;48.956;9.200;2023-06-10T10:57:59;213.43;;;203.23;;
11269;SDS011;5692;48.956;9.200;2023-06-10T11:00:32;211.67;;;201.57;;
11269;SDS011;5692;48.956;9.200;2023-06-10T11:03:07;211.70;;;201.60;;
11269;SDS011;5692;48.956;9.200;2023-06-10T11:05:40;216.10;;;205.77;;
11269;SDS011;5692;48.956;9.200;2023-06-10T11:08:09;264.97;;;252.30;;
11269;SDS011;5692;48.956;9.200;2023-06-10T11:10:39;239.13;;;227.70;;
11269;SDS011;5692;48.956;9.200;2023-06-10T11:13:06;243.83;;;232.17;;
11269;SDS011;5692;48.956;9.200;2023-06-10T11:15:33;271.37;;;258.37;;
11269;SDS011;5692;48.956;9.200;2023-06-10T11:28:36;240.47;;;228.97;;
11269;SDS011;5692;48.956;9.200;2023-06-10T11:31:02;229.07;;;218.10;;
11269;SDS011;5692;48.956;9.200;2023-06-10T11:33:28;222.07;;;211.47;;
11269;SDS011;5692;48.956;9.200;2023-06-10T11:35:55;238.07;;;226.67;;
11269;SDS011;5692;48.956;9.200;2023-06-10T11:38:21;238.10;;;226.70;;
11269;SDS011;5692;48.956;9.200;2023-06-10T11:40:50;240.07;;;228.57;;
11269;SDS011;5692;48.956;9.200;2023-06-10T11:43:19;216.07;;;205.73;;
11269;SDS011;5692;48.956;9.200;2023-06-10T11:45:46;231.90;;;220.80;;
11269;SDS011;5692;48.956;9.200;2023-06-10T11:48:12;231.57;;;220.50;;
11269;SDS011;5692;48.956;9.200;2023-06-10T11:50:38;232.90;;;221.73;;
11269;SDS011;5692;48.956;9.200;2023-06-10T11:53:07;226.23;;;215.43;;
11269;SDS011;5692;48.956;9.200;2023-06-10T11:55:43;224.23;;;213.53;;
11269;SDS011;5692;48.956;9.200;2023-06-10T11:58:19;237.27;;;225.93;;
11269;SDS011;5692;48.956;9.200;2023-06-10T12:00:48;232.23;;;221.13;;
11269;SDS011;5692;48.956;9.200;2023-06-10T12:03:16;224.60;;;213.87;;
11269;SDS011;5692;48.956;9.200;2023-06-10T12:05:55;233.63;;;222.43;;
11269;SDS011;5692;48.956;9.200;2023-06-10T12:08:22;230.27;;;219.27;;
11269;SDS011;5692;48.956;9.200;2023-06-10T12:10:48;229.77;;;218.77;;
11269;SDS011;5692;48.956;9.200;2023-06-10T12:13:15;228.40;;;217.50;;
11269;SDS011;5692;48.956;9.200;2023-06-10T12:15:43;212.40;;;202.23;;
11269;SDS011;5692;48.956;9.200;2023-06-10T12:18:15;210.40;;;200.30;;
11269;SDS011;5692;48.956;9.200;2023-06-10T12:20:42;206.87;;;196.97;;
11269;SDS011;5692;48.956;9.200;2023-06-10T12:23:09;221.30;;;210.70;;
11269;SDS011;5692;48.956;9.200;2023-06-10T12:25:37;202.73;;;193.03;;
11269;SDS011;5692;48.956;9.200;2023-06-10T12:28:03;218.77;;;208.30;;
11269;SDS011;5692;48.956;9.200;2023-06-10T12:30:30;217.90;;;207.50;;
11269;SDS011;5692;48.956;9.200;2023-06-10T12:32:57;211.67;;;201.57;;
11269;SDS011;5692;48.956;9.200;2023-06-10T12:35:24;242.70;;;231.10;;
11269;SDS011;5692;48.956;9.200;2023-06-10T12:38:03;238.13;;;226.73;;
11269;SDS011;5692;48.956;9.200;2023-06-10T12:40:32;237.83;;;226.43;;
11269;SDS011;5692;48.956;9.200;2023-06-10T12:43:01;252.83;;;240.73;;
11269;SDS011;5692;48.956;9.200;2023-06-10T12:45:32;232.90;;;221.77;;
11269;SDS011;5692;48.956;9.200;2023-06-10T12:50:41;232.27;;;221.17;;
11269;SDS011;5692;48.956;9.200;2023-06-10T12:53:07;212.83;;;202.67;;
11269;SDS011;5692;48.956;9.200;2023-06-10T12:55:33;207.20;;;197.27;;
11269;SDS011;5692;48.956;9.200;2023-06-10T12:58:00;231.37;;;220.30;;
11269;SDS011;5692;48.956;9.200;2023-06-10T13:00:26;262.97;;;250.37;;
11269;SDS011;5692;48.956;9.200;2023-06-10T13:02:55;287.87;;;274.10;;
11269;SDS011;5692;48.956;9.200;2023-06-10T13:05:23;270.43;;;257.53;;
11269;SDS011;5692;48.956;9.200;2023-06-10T13:07:49;269.13;;;256.27;;
11269;SDS011;5692;48.956;9.200;2023-06-10T13:10:16;247.37;;;235.53;;
11269;SDS011;5692;48.956;9.200;2023-06-10T13:12:42;230.70;;;219.67;;
11269;SDS011;5692;48.956;9.200;2023-06-10T13:15:09;239.93;;;228.43;;
11269;SDS011;5692;48.956;9.200;2023-06-10T13:17:35;210.80;;;200.70;;
11269;SDS011;5692;48.956;9.200;2023-06-10T13:20:04;204.90;;;195.10;;
11269;SDS011;5692;48.956;9.200;2023-06-10T13:22:31;198.10;;;188.60;;
11269;SDS011;5692;48.956;9.200;2023-06-10T13:25:04;199.70;;;190.13;;
11269;SDS011;5692;48.956;9.200;2023-06-10T13:27:32;204.70;;;194.90;;
11269;SDS011;5692;48.956;9.200;2023-06-10T13:29:58;203.30;;;193.60;;
11269;SDS011;5692;48.956;9.200;2023-06-10T13:32:24;220.17;;;209.63;;
11269;SDS011;5692;48.956;9.200;2023-06-10T13:34:50;208.80;;;198.80;;
11269;SDS011;5692;48.956;9.200;2023-06-10T13:37:16;192.47;;;183.27;;
11269;SDS011;5692;48.956;9.200;2023-06-10T13:39:43;200.50;;;190.90;;
11269;SDS011;5692;48.956;9.200;2023-06-10T13:42:09;210.37;;;200.27;;
11269;SDS011;5692;48.956;9.200;2023-06-10T13:44:35;214.53;;;204.23;;
11269;SDS011;5692;48.956;9.200;2023-06-10T13:47:04;212.30;;;202.10;;
11269;SDS011;5692;48.956;9.200;2023-06-10T13:49:31;209.17;;;199.17;;
11269;SDS011;5692;48.956;9.200;2023-06-10T13:51:57;206.30;;;196.43;;
11269;SDS011;5692;48.956;9.200;2023-06-10T13:54:26;201.10;;;191.47;;
11269;SDS011;5692;48.956;9.200;2023-06-10T13:56:54;217.70;;;207.27;;
11269;SDS011;5692;48.956;9.200;2023-06-10T13:59:20;217.87;;;207.43;;
11269;SDS011;5692;48.956;9.200;2023-06-10T14:01:46;231.40;;;220.30;;
11269;SDS011;5692;48.956;9.200;2023-06-10T14:04:12;253.77;;;241.67;;
11269;SDS011;5692;48.956;9.200;2023-06-10T14:06:39;241.33;;;229.83;;
11269;SDS011;5692;48.956;9.200;2023-06-10T14:09:05;238.13;;;226.73;;
11269;SDS011;5692;48.956;9.200;2023-06-10T14:11:33;257.60;;;245.30;;
11269;SDS011;5692;48.956;9.200;2023-06-10T14:13:59;274.43;;;261.33;;
11269;SDS011;5692;48.956;9.200;2023-06-10T14:16:26;255.10;;;242.90;;
11269;SDS011;5692;48.956;9.200;2023-06-10T14:18:52;268.40;;;255.57;;
11269;SDS011;5692;48.956;9.200;2023-06-10T14:21:19;261.33;;;248.83;;
11269;SDS011;5692;48.956;9.200;2023-06-10T14:23:45;260.73;;;248.27;;
11269;SDS011;5692;48.956;9.200;2023-06-10T14:26:11;264.83;;;252.17;;
11269;SDS011;5692;48.956;9.200;2023-06-10T14:28:37;280.20;;;266.83;;
11269;SDS011;5692;48.956;9.200;2023-06-10T14:31:03;260.00;;;247.60;;